Terminal Aerodrome Forecast
Issued by NWS Wakefield, VA

Home | Current Version | Previous Version | Text Only | Print | Product List | Glossary On
Versions: 1 2 3 4 5 6 7 8 9 10 11 12 13 14
326
FTUS41 KAKQ 221137
TAFORF
TAF
KORF 221137Z 2212/2312 20008KT P6SM SCT005
     FM221600 20011KT P6SM FEW040
     FM230300 22009KT P6SM SCT200=

USA.gov is the U.S. government's official web portal to all federal, state and local government web resources and services.